Time;durP1;ratioP1;P1;durP2;ratioP2;P2;SDS_P1;SDS_P2;PMS_P1;PMS_P2;Temp;Humidity;BMP_temperature;BMP_pressure;BME280_temperature;BME280_humidity;BME280_pressure;Samples;Min_cycle;Max_cycle;Signal;HPM_P1;HPM_P2
2024/04/11 00:01:12;;;;;;;0.53;0.53;;;6.40;99.90;;;;;;4458354;26;20565;-24
2024/04/11 00:03:15;;;;;;;0.70;0.70;;;6.30;99.90;;;;;;4453471;26;20466;-24
2024/04/11 00:05:17;;;;;;;0.50;0.50;;;6.40;99.90;;;;;;4458601;26;20510;-24
2024/04/11 00:07:19;;;;;;;0.73;0.73;;;6.40;99.90;;;;;;4459469;26;20537;-24
2024/04/11 00:09:21;;;;;;;0.50;0.50;;;6.40;99.90;;;;;;4461773;26;20946;-24
2024/04/11 00:11:23;;;;;;;0.60;0.60;;;6.40;99.90;;;;;;4469306;26;20476;-24
2024/04/11 00:13:25;;;;;;;0.50;0.50;;;6.40;99.90;;;;;;4457353;26;20477;-24
2024/04/11 00:15:26;;;;;;;0.50;0.50;;;6.40;99.90;;;;;;4463059;26;20480;-24
2024/04/11 00:17:28;;;;;;;0.50;0.50;;;6.40;99.90;;;;;;4460525;26;20553;-24
2024/04/11 00:19:30;;;;;;;0.50;0.50;;;6.40;99.90;;;;;;4457083;26;20526;-24
2024/04/11 00:21:32;;;;;;;0.57;0.57;;;6.30;99.90;;;;;;4463629;26;20466;-24
2024/04/11 00:23:34;;;;;;;0.50;0.50;;;6.30;99.90;;;;;;4450069;26;20884;-24
2024/04/11 00:25:36;;;;;;;0.50;0.50;;;6.30;99.90;;;;;;4470395;26;20565;-24
2024/04/11 00:27:37;;;;;;;0.50;0.50;;;6.30;99.90;;;;;;4461733;26;20478;-24
2024/04/11 00:29:39;;;;;;;0.60;0.60;;;6.20;99.90;;;;;;4455218;26;20481;-24
2024/04/11 00:31:41;;;;;;;0.40;0.40;;;6.20;99.90;;;;;;4460714;26;20840;-25
2024/04/11 00:33:54;;;;;;;0.50;0.50;;;6.20;99.90;;;;;;4469584;26;21184;-24
2024/04/11 00:35:59;;;;;;;0.50;0.50;;;6.10;99.90;;;;;;4458252;26;20878;-24
2024/04/11 00:38:03;;;;;;;0.50;0.50;;;6.10;99.90;;;;;;4460863;26;20465;-24
2024/04/11 00:40:05;;;;;;;2.03;1.13;;;6.00;99.90;;;;;;4454916;26;20474;-24
2024/04/11 00:42:07;;;;;;;0.50;0.50;;;5.90;99.90;;;;;;4449744;26;20516;-25
2024/04/11 00:44:09;;;;;;;0.50;0.50;;;5.80;99.90;;;;;;4449922;26;20474;-24
2024/04/11 00:46:11;;;;;;;0.50;0.50;;;5.80;99.90;;;;;;4453602;26;20552;-24
2024/04/11 00:48:15;;;;;;;0.47;0.47;;;5.70;99.90;;;;;;4462396;26;20535;-24
2024/04/11 00:50:17;;;;;;;0.50;0.50;;;5.70;99.90;;;;;;4458670;26;20541;-26
2024/04/11 00:52:19;;;;;;;0.50;0.50;;;5.70;99.90;;;;;;4455097;26;20554;-25
2024/04/11 00:54:21;;;;;;;0.50;0.50;;;5.80;99.90;;;;;;4456758;26;20601;-25
2024/04/11 00:56:24;;;;;;;0.53;0.53;;;5.70;99.90;;;;;;4465931;26;20507;-26
2024/04/11 00:58:26;;;;;;;0.60;0.60;;;5.80;99.90;;;;;;4453947;26;20574;-24
2024/04/11 01:00:28;;;;;;;0.50;0.50;;;5.70;99.90;;;;;;4453878;26;20470;-24
2024/04/11 01:02:30;;;;;;;0.70;0.70;;;5.80;99.90;;;;;;4455299;26;20477;-24
2024/04/11 01:04:33;;;;;;;0.50;0.50;;;5.80;99.90;;;;;;4451013;26;20465;-24
2024/04/11 01:07:08;;;;;;;0.73;0.60;;;5.80;99.90;;;;;;4458926;26;20553;-24
2024/04/11 01:09:32;;;;;;;0.40;0.40;;;5.90;99.90;;;;;;4455842;26;20465;-24
2024/04/11 01:11:32;;;;;;;0.50;0.50;;;6.00;99.90;;;;;;4467586;26;20472;-25
2024/04/11 01:13:34;;;;;;;0.50;0.50;;;5.90;99.90;;;;;;4466035;26;20536;-24
2024/04/11 01:15:37;;;;;;;0.70;0.70;;;6.00;99.90;;;;;;4451503;26;20481;-24
2024/04/11 01:17:39;;;;;;;0.50;0.50;;;6.00;99.90;;;;;;4456065;26;20478;-24
2024/04/11 01:19:44;;;;;;;0.90;0.73;;;6.10;99.90;;;;;;4455184;26;20903;-24
2024/04/11 01:21:48;;;;;;;0.60;0.60;;;6.10;99.90;;;;;;4455841;26;21239;-24
2024/04/11 01:23:50;;;;;;;0.50;0.50;;;6.00;99.90;;;;;;4457594;26;20538;-24
2024/04/11 01:25:53;;;;;;;2.20;0.60;;;5.90;99.90;;;;;;4463648;26;20484;-24
2024/04/11 01:27:56;;;;;;;0.50;0.50;;;5.80;99.90;;;;;;4459838;26;20631;-24
2024/04/11 01:29:57;;;;;;;0.60;0.60;;;5.90;99.90;;;;;;4450080;26;20579;-24
2024/04/11 01:32:00;;;;;;;0.50;0.50;;;6.00;99.90;;;;;;4457190;26;20823;-25
2024/04/11 01:34:01;;;;;;;0.50;0.50;;;6.00;99.90;;;;;;4463538;26;21224;-24
2024/04/11 01:36:04;;;;;;;0.70;0.70;;;6.00;99.90;;;;;;4457219;26;20588;-24
2024/04/11 01:38:06;;;;;;;0.50;0.50;;;6.00;99.90;;;;;;4464275;26;20488;-24
2024/04/11 01:40:08;;;;;;;0.50;0.50;;;6.00;99.90;;;;;;4462771;26;20464;-24
2024/04/11 01:42:11;;;;;;;0.50;0.50;;;6.00;99.90;;;;;;4458066;26;20477;-24
2024/04/11 01:44:13;;;;;;;0.60;0.60;;;6.00;99.90;;;;;;4455641;26;20824;-24
2024/04/11 01:46:18;;;;;;;1.43;1.17;;;6.00;99.90;;;;;;4454448;26;21043;-24
2024/04/11 01:48:20;;;;;;;0.40;0.40;;;6.00;99.90;;;;;;4456224;26;20537;-24
2024/04/11 01:50:22;;;;;;;0.50;0.50;;;6.00;99.90;;;;;;4459904;26;20515;-24
2024/04/11 01:52:24;;;;;;;0.57;0.53;;;6.10;99.90;;;;;;4456473;26;20457;-24
2024/04/11 01:54:26;;;;;;;0.50;0.50;;;6.00;99.90;;;;;;4455941;26;21014;-24
2024/04/11 01:56:34;;;;;;;0.50;0.50;;;6.00;99.90;;;;;;4468151;26;20468;-24
2024/04/11 01:58:36;;;;;;;0.50;0.50;;;6.00;99.90;;;;;;4459050;26;20531;-24
2024/04/11 02:00:38;;;;;;;0.50;0.50;;;5.90;99.90;;;;;;4460062;26;21221;-24
2024/04/11 02:02:43;;;;;;;0.70;0.70;;;6.00;99.90;;;;;;4463229;26;20485;-24
2024/04/11 02:04:46;;;;;;;0.60;0.60;;;6.00;99.90;;;;;;4462032;26;20565;-24
2024/04/11 02:06:48;;;;;;;0.77;0.77;;;5.90;99.90;;;;;;4452680;26;20526;-24
2024/04/11 02:08:50;;;;;;;0.50;0.50;;;5.90;99.90;;;;;;4453832;26;21000;-24
2024/04/11 02:10:52;;;;;;;0.43;0.43;;;5.90;99.90;;;;;;4458534;26;21515;-24
2024/04/11 02:12:54;;;;;;;0.50;0.50;;;5.70;99.90;;;;;;4453773;26;21023;-24
2024/04/11 02:14:58;;;;;;;0.70;0.70;;;5.60;99.90;;;;;;4452881;26;20466;-24
2024/04/11 02:17:00;;;;;;;0.70;0.70;;;5.50;99.90;;;;;;4458968;26;20565;-25
2024/04/11 02:19:06;;;;;;;0.60;0.60;;;5.40;99.90;;;;;;4458684;26;20833;-24
2024/04/11 02:21:09;;;;;;;0.50;0.50;;;5.30;99.90;;;;;;4457698;26;21210;-24
2024/04/11 02:23:10;;;;;;;0.77;0.77;;;5.30;99.90;;;;;;4460942;26;21416;-24
2024/04/11 02:25:16;;;;;;;0.80;0.80;;;5.30;99.90;;;;;;4464903;26;20548;-24
2024/04/11 02:27:18;;;;;;;0.50;0.50;;;5.40;99.90;;;;;;4451840;26;20559;-24
2024/04/11 02:29:20;;;;;;;0.50;0.50;;;5.40;99.90;;;;;;4451313;26;20537;-24
2024/04/11 02:31:22;;;;;;;0.40;0.40;;;5.40;99.90;;;;;;4462278;26;20565;-24
2024/04/11 02:33:29;;;;;;;0.60;0.60;;;5.40;99.90;;;;;;4468997;26;20545;-24
2024/04/11 02:35:32;;;;;;;0.50;0.50;;;5.50;99.90;;;;;;4461941;26;20472;-24
2024/04/11 02:37:34;;;;;;;0.50;0.50;;;5.50;99.90;;;;;;4455496;26;20576;-24
2024/04/11 02:39:36;;;;;;;0.50;0.50;;;5.50;99.90;;;;;;4452557;26;20524;-24
2024/04/11 02:41:38;;;;;;;0.50;0.50;;;5.40;99.90;;;;;;4455102;26;21060;-24
2024/04/11 02:43:40;;;;;;;0.63;0.57;;;5.40;99.90;;;;;;4460926;26;20478;-24
2024/04/11 02:45:42;;;;;;;0.50;0.50;;;5.40;99.90;;;;;;4460663;26;20863;-24
2024/04/11 02:47:44;;;;;;;0.70;0.70;;;5.30;99.90;;;;;;4457752;26;20472;-24
2024/04/11 02:49:47;;;;;;;1.07;0.73;;;5.30;99.90;;;;;;4459033;26;20468;-24
2024/04/11 02:51:51;;;;;;;0.80;0.80;;;3.80;99.90;;;;;;4465287;26;20537;-24
2024/04/11 02:53:53;;;;;;;0.57;0.57;;;5.30;99.90;;;;;;4461098;26;21232;-24
2024/04/11 02:55:55;;;;;;;0.50;0.50;;;5.30;99.90;;;;;;4468294;26;20546;-24
2024/04/11 02:57:57;;;;;;;0.50;0.50;;;5.40;99.90;;;;;;4467879;26;20477;-24
2024/04/11 02:59:59;;;;;;;0.50;0.50;;;5.40;99.90;;;;;;4456470;26;20539;-24
2024/04/11 03:02:01;;;;;;;0.50;0.50;;;5.50;99.90;;;;;;4459955;26;20904;-29
2024/04/11 03:04:03;;;;;;;0.63;0.60;;;5.50;99.90;;;;;;4450650;26;20905;-24
2024/04/11 03:06:11;;;;;;;0.50;0.50;;;5.60;99.90;;;;;;4462690;26;21052;-24
2024/04/11 03:08:13;;;;;;;1.37;0.57;;;5.60;99.90;;;;;;4451211;26;20489;-24
2024/04/11 03:10:16;;;;;;;1.97;1.60;;;5.60;99.90;;;;;;4464637;26;20536;-24
2024/04/11 03:12:17;;;;;;;0.60;0.60;;;5.60;99.90;;;;;;4453440;26;20525;-30
2024/04/11 03:14:20;;;;;;;0.50;0.50;;;5.60;99.90;;;;;;4457950;26;20537;-24
2024/04/11 03:16:30;;;;;;;0.40;0.40;;;5.60;99.90;;;;;;4462321;26;20481;-24
2024/04/11 03:18:36;;;;;;;0.53;0.53;;;5.50;99.90;;;;;;4459232;26;20476;-24
2024/04/11 03:20:38;;;;;;;1.07;1.07;;;5.50;99.90;;;;;;4468183;26;21182;-24
2024/04/11 03:22:40;;;;;;;0.50;0.50;;;5.40;99.90;;;;;;4461249;26;20478;-24
2024/04/11 03:24:44;;;;;;;0.57;0.57;;;5.40;99.90;;;;;;4464586;26;20554;-24
2024/04/11 03:26:45;;;;;;;1.27;0.93;;;5.30;99.90;;;;;;4464218;26;21095;-24
2024/04/11 03:28:47;;;;;;;2.10;0.97;;;5.30;99.90;;;;;;4455466;26;20599;-24
2024/04/11 03:30:57;;;;;;;0.40;0.40;;;5.30;99.90;;;;;;4452884;26;20526;-24
2024/04/11 03:33:00;;;;;;;1.13;1.13;;;5.20;99.90;;;;;;4474911;26;20468;-24
2024/04/11 03:35:04;;;;;;;1.00;1.00;;;5.10;99.90;;;;;;4456555;26;20558;-24
2024/04/11 03:37:07;;;;;;;0.60;0.60;;;5.10;99.90;;;;;;4458769;26;20464;-24
2024/04/11 03:39:12;;;;;;;0.40;0.40;;;5.10;99.90;;;;;;4463047;26;21252;-25
2024/04/11 03:41:14;;;;;;;0.50;0.50;;;5.10;99.90;;;;;;4457534;26;20474;-23
2024/04/11 03:43:16;;;;;;;0.50;0.50;;;5.20;99.90;;;;;;4454771;26;20477;-23
2024/04/11 03:45:22;;;;;;;0.50;0.50;;;5.20;99.90;;;;;;4456856;26;20491;-23
2024/04/11 03:47:25;;;;;;;0.40;0.40;;;5.30;99.90;;;;;;4461025;26;20486;-23
2024/04/11 03:49:27;;;;;;;0.40;0.40;;;5.20;99.90;;;;;;4459762;26;20553;-23
2024/04/11 03:51:33;;;;;;;0.60;0.60;;;5.30;99.90;;;;;;4457092;26;20826;-23
2024/04/11 03:53:35;;;;;;;0.60;0.60;;;5.40;99.90;;;;;;4456117;26;20579;-23
2024/04/11 03:55:43;;;;;;;0.40;0.40;;;5.40;99.90;;;;;;4463055;26;20518;-23
2024/04/11 03:57:49;;;;;;;0.50;0.50;;;5.40;99.90;;;;;;4450872;26;20557;-23
2024/04/11 03:59:52;;;;;;;0.50;0.50;;;5.40;99.90;;;;;;4455305;26;20453;-23
2024/04/11 04:01:54;;;;;;;0.60;0.60;;;5.40;99.90;;;;;;4455155;26;20598;-23
2024/04/11 04:04:02;;;;;;;0.50;0.50;;;5.40;99.90;;;;;;4454334;26;20880;-23
2024/04/11 04:06:08;;;;;;;0.40;0.40;;;5.30;99.90;;;;;;4467162;26;20575;-23
2024/04/11 04:08:10;;;;;;;0.50;0.50;;;5.30;99.90;;;;;;4459278;26;20596;-23
2024/04/11 04:10:12;;;;;;;0.40;0.40;;;5.30;99.90;;;;;;4456936;26;20529;-23
2024/04/11 04:12:16;;;;;;;2.20;0.60;;;5.30;99.90;;;;;;4461325;26;20473;-23
2024/04/11 04:14:18;;;;;;;0.50;0.50;;;5.30;99.90;;;;;;4457289;26;20537;-23
2024/04/11 04:16:21;;;;;;;0.50;0.50;;;5.30;99.90;;;;;;4458926;26;21081;-23
2024/04/11 04:18:22;;;;;;;0.50;0.50;;;5.30;99.90;;;;;;4460636;26;20846;-23
2024/04/11 04:20:24;;;;;;;0.50;0.50;;;5.40;99.90;;;;;;4456742;26;20885;-29
2024/04/11 04:22:27;;;;;;;1.00;0.80;;;5.40;99.90;;;;;;4455413;26;20841;-24
2024/04/11 04:24:28;;;;;;;0.90;0.90;;;5.40;99.90;;;;;;4460705;26;20476;-23
2024/04/11 04:26:30;;;;;;;0.47;0.47;;;5.40;99.90;;;;;;4460542;26;20536;-23
2024/04/11 04:28:34;;;;;;;1.00;0.80;;;5.40;99.90;;;;;;4458663;26;20469;-23
2024/04/11 04:30:38;;;;;;;0.40;0.40;;;5.40;99.90;;;;;;4457977;26;20509;-23
2024/04/11 04:32:40;;;;;;;0.60;0.60;;;6.60;99.90;;;;;;4457072;26;20545;-27
2024/04/11 04:34:43;;;;;;;0.90;0.90;;;5.30;99.90;;;;;;4461222;26;20520;-23
2024/04/11 04:36:46;;;;;;;1.10;1.10;;;5.30;99.90;;;;;;4463739;26;20508;-23
2024/04/11 04:38:49;;;;;;;0.40;0.40;;;5.30;99.90;;;;;;4454250;26;20533;-23
2024/04/11 04:40:52;;;;;;;0.50;0.50;;;5.30;99.90;;;;;;4455061;26;20470;-21
2024/04/11 04:42:56;;;;;;;0.57;0.53;;;5.30;99.90;;;;;;4465222;26;21003;-23
2024/04/11 04:44:57;;;;;;;0.70;0.67;;;5.20;99.90;;;;;;4460174;26;20461;-23
2024/04/11 04:47:03;;;;;;;0.70;0.70;;;5.20;99.90;;;;;;4454338;26;20499;-23
2024/04/11 04:49:09;;;;;;;1.50;1.00;;;5.10;99.90;;;;;;4456728;26;20545;-23
2024/04/11 04:51:13;;;;;;;0.50;0.50;;;5.10;99.90;;;;;;4463042;26;21242;-23
2024/04/11 04:53:16;;;;;;;0.70;0.70;;;5.00;99.90;;;;;;4462583;26;21047;-23
2024/04/11 04:55:17;;;;;;;0.73;0.60;;;4.90;99.90;;;;;;4465051;26;20937;-23
2024/04/11 04:57:21;;;;;;;0.43;0.43;;;4.90;99.90;;;;;;4459734;26;21076;-23
2024/04/11 04:59:23;;;;;;;0.50;0.50;;;4.90;99.90;;;;;;4461378;26;20470;-23
2024/04/11 05:01:26;;;;;;;0.50;0.50;;;4.90;99.90;;;;;;4458774;26;20921;-23
2024/04/11 05:03:31;;;;;;;0.50;0.50;;;4.90;99.90;;;;;;4451759;26;20533;-23
2024/04/11 05:05:36;;;;;;;0.50;0.50;;;4.90;99.90;;;;;;4458254;26;20924;-23
2024/04/11 05:07:40;;;;;;;0.50;0.50;;;4.90;99.90;;;;;;4461609;26;20478;-23
2024/04/11 05:09:45;;;;;;;0.40;0.40;;;4.90;99.90;;;;;;4451876;26;20588;-23
2024/04/11 05:11:47;;;;;;;0.40;0.40;;;4.90;99.90;;;;;;4468999;26;20502;-23
2024/04/11 05:13:50;;;;;;;0.60;0.60;;;4.90;99.90;;;;;;4463019;26;20521;-23
2024/04/11 05:15:56;;;;;;;0.80;0.57;;;4.90;99.90;;;;;;4452037;26;20474;-26
2024/04/11 05:17:58;;;;;;;0.50;0.50;;;5.00;99.90;;;;;;4469594;26;20582;-23
2024/04/11 05:20:03;;;;;;;0.60;0.50;;;5.00;99.90;;;;;;4468465;26;21008;-23
2024/04/11 05:22:08;;;;;;;6.13;1.13;;;5.00;99.90;;;;;;4455755;26;20530;-23
2024/04/11 05:24:10;;;;;;;0.50;0.50;;;5.10;99.90;;;;;;4459268;26;20821;-23
2024/04/11 05:26:15;;;;;;;0.50;0.50;;;5.20;99.90;;;;;;4471128;26;20516;-23
2024/04/11 05:28:17;;;;;;;0.87;0.87;;;5.20;99.90;;;;;;4453142;26;20530;-23
2024/04/11 05:30:19;;;;;;;0.50;0.50;;;5.40;99.90;;;;;;4454472;26;21081;-30
2024/04/11 05:32:22;;;;;;;0.50;0.50;;;5.50;99.90;;;;;;4454267;26;20466;-24
2024/04/11 05:34:25;;;;;;;0.50;0.50;;;5.60;99.90;;;;;;4455720;26;20468;-23
2024/04/11 05:36:31;;;;;;;0.70;0.60;;;5.70;99.90;;;;;;4457329;26;20521;-23
2024/04/11 05:38:38;;;;;;;3.50;1.10;;;5.70;99.90;;;;;;4465330;26;20822;-23
2024/04/11 05:40:40;;;;;;;0.50;0.50;;;5.80;99.90;;;;;;4449666;26;20987;-26
2024/04/11 05:42:45;;;;;;;0.50;0.50;;;5.80;99.90;;;;;;4453331;26;20545;-27
2024/04/11 05:44:47;;;;;;;0.40;0.40;;;5.90;99.90;;;;;;4456705;26;20537;-30
2024/04/11 05:46:49;;;;;;;0.63;0.63;;;6.00;99.90;;;;;;4455547;26;20481;-26
2024/04/11 05:48:52;;;;;;;0.50;0.50;;;6.00;99.90;;;;;;4458027;26;20585;-25
2024/04/11 05:50:55;;;;;;;0.87;0.73;;;6.10;99.90;;;;;;4457220;26;20520;-26
2024/04/11 05:52:58;;;;;;;0.80;0.80;;;6.20;99.90;;;;;;4454023;26;20625;-25
2024/04/11 05:55:02;;;;;;;0.50;0.50;;;6.30;99.90;;;;;;4462860;26;20539;-26
2024/04/11 05:57:04;;;;;;;0.50;0.50;;;6.40;99.90;;;;;;4450338;26;20465;-25
2024/04/11 05:59:08;;;;;;;0.40;0.40;;;6.50;99.90;;;;;;4460181;26;20560;-29
2024/04/11 06:01:13;;;;;;;1.93;0.70;;;6.60;99.90;;;;;;4457419;26;20490;-26
2024/04/11 06:03:16;;;;;;;0.70;0.70;;;6.70;99.90;;;;;;4456929;26;20551;-24
2024/04/11 06:05:20;;;;;;;0.50;0.50;;;6.80;99.90;;;;;;4461220;26;20484;-26
2024/04/11 06:07:22;;;;;;;0.50;0.50;;;6.90;99.90;;;;;;4452238;26;20481;-28
2024/04/11 06:09:24;;;;;;;0.70;0.70;;;6.90;99.90;;;;;;4460198;26;20844;-26
2024/04/11 06:11:25;;;;;;;0.60;0.60;;;7.00;99.90;;;;;;4455558;26;20470;-26
2024/04/11 06:13:27;;;;;;;0.63;0.50;;;7.10;99.90;;;;;;4464100;26;20472;-26
2024/04/11 06:15:29;;;;;;;0.70;0.70;;;7.20;99.90;;;;;;4466700;26;20520;-25
2024/04/11 06:17:31;;;;;;;0.50;0.50;;;7.60;99.90;;;;;;4451206;26;20877;-26
2024/04/11 06:19:35;;;;;;;0.50;0.50;;;7.50;99.90;;;;;;4456960;26;20478;-25
2024/04/11 06:21:45;;;;;;;0.60;0.60;;;7.60;99.90;;;;;;4462538;26;20446;-26
2024/04/11 06:23:46;;;;;;;0.80;0.80;;;7.70;99.90;;;;;;4450779;26;21437;-26
2024/04/11 06:25:50;;;;;;;0.50;0.50;;;7.80;99.90;;;;;;4455747;26;20480;-26
2024/04/11 06:27:52;;;;;;;0.80;0.80;;;7.90;99.90;;;;;;4464336;26;20855;-26
2024/04/11 06:29:58;;;;;;;0.60;0.60;;;8.00;99.90;;;;;;4455326;26;20529;-26
2024/04/11 06:32:01;;;;;;;0.60;0.60;;;8.20;99.90;;;;;;4457209;26;21146;-26
2024/04/11 06:34:02;;;;;;;0.60;0.60;;;8.40;99.90;;;;;;4465129;26;21594;-26
2024/04/11 06:36:06;;;;;;;0.60;0.60;;;8.60;99.90;;;;;;4459211;26;20999;-26
2024/04/11 06:38:09;;;;;;;0.50;0.50;;;9.00;99.90;;;;;;4461546;26;20829;-26
2024/04/11 06:40:14;;;;;;;0.50;0.50;;;9.40;99.90;;;;;;4462516;26;20481;-26
2024/04/11 06:42:17;;;;;;;0.57;0.57;;;9.80;99.90;;;;;;4467870;26;20481;-26
2024/04/11 06:44:19;;;;;;;0.60;0.60;;;10.40;99.90;;;;;;4460433;26;20488;-27
2024/04/11 06:46:21;;;;;;;0.50;0.50;;;11.00;99.90;;;;;;4460045;26;20545;-26
2024/04/11 06:48:23;;;;;;;0.87;0.87;;;11.60;99.90;;;;;;4463134;26;20469;-30
2024/04/11 06:50:25;;;;;;;0.87;0.87;;;12.00;99.90;;;;;;4457305;26;20526;-52
2024/04/11 06:52:29;;;;;;;0.77;0.77;;;12.30;99.90;;;;;;4462574;26;20905;-34
2024/04/11 06:54:33;;;;;;;0.60;0.60;;;12.40;99.90;;;;;;4469702;26;21084;-40
2024/04/11 06:56:36;;;;;;;0.60;0.60;;;12.50;99.90;;;;;;4465996;26;20461;-34
2024/04/11 06:58:38;;;;;;;0.53;0.53;;;12.20;99.90;;;;;;4460070;26;20494;-25
2024/04/11 07:00:41;;;;;;;0.60;0.60;;;12.10;99.90;;;;;;4458445;26;20472;-24
2024/04/11 07:02:46;;;;;;;0.90;0.90;;;11.70;99.90;;;;;;4466030;26;20529;-24
2024/04/11 07:04:48;;;;;;;0.60;0.60;;;11.60;99.90;;;;;;4466670;26;21200;-24
2024/04/11 07:06:53;;;;;;;0.50;0.50;;;11.80;99.90;;;;;;4459889;26;20517;-33
2024/04/11 07:08:56;;;;;;;5.33;1.17;;;12.00;99.90;;;;;;4458894;26;20482;-24
2024/04/11 07:11:19;;;;;;;0.60;0.60;;;12.00;99.90;;;;;;4457560;26;20511;-25
2024/04/11 07:13:23;;;;;;;0.60;0.60;;;12.10;99.90;;;;;;4464391;26;20526;-25
2024/04/11 07:15:34;;;;;;;2.50;1.40;;;11.90;99.90;;;;;;4464546;26;20517;-25
2024/04/11 07:17:41;;;;;;;0.70;0.70;;;11.80;99.90;;;;;;4458272;26;20487;-24
2024/04/11 07:19:43;;;;;;;0.70;0.70;;;11.60;99.90;;;;;;4459189;26;20469;-24
2024/04/11 07:21:46;;;;;;;1.00;0.90;;;11.60;99.60;;;;;;4465954;26;20868;-24
2024/04/11 07:23:53;;;;;;;0.60;0.57;;;11.80;99.90;;;;;;4468218;26;20917;-29
2024/04/11 07:25:55;;;;;;;0.70;0.70;;;12.10;99.90;;;;;;4467924;26;20545;-25
2024/04/11 07:28:00;;;;;;;0.60;0.60;;;12.60;99.90;;;;;;4466352;26;20555;-25
2024/04/11 07:30:11;;;;;;;0.90;0.90;;;12.80;99.40;;;;;;4459606;26;20996;-25
2024/04/11 07:32:13;;;;;;;0.60;0.60;;;13.20;99.90;;;;;;4462625;26;20615;-32
2024/04/11 07:34:15;;;;;;;0.70;0.70;;;13.80;99.90;;;;;;4471579;26;21066;-32
2024/04/11 07:36:21;;;;;;;0.63;0.63;;;14.00;99.90;;;;;;4456617;26;20474;-24
2024/04/11 07:38:26;;;;;;;1.00;1.00;;;14.50;98.50;;;;;;4450139;26;20526;-26
2024/04/11 07:40:28;;;;;;;0.70;0.70;;;15.00;98.30;;;;;;4464492;26;20461;-25
2024/04/11 07:42:54;;;;;;;0.60;0.60;;;15.20;97.00;;;;;;4464715;26;20835;-25
2024/04/11 07:44:56;;;;;;;0.70;0.70;;;15.70;99.30;;;;;;4463354;26;20480;-25
2024/04/11 07:46:58;;;;;;;0.97;0.87;;;16.20;92.60;;;;;;4469435;26;20478;-25
2024/04/11 07:49:17;;;;;;;0.70;0.70;;;16.50;94.60;;;;;;4464488;26;20465;-25
2024/04/11 07:51:20;;;;;;;0.70;0.70;;;17.00;93.60;;;;;;4469323;26;20495;-42
2024/04/11 07:53:26;;;;;;;0.80;0.80;;;17.50;92.10;;;;;;4459909;26;21126;-29
2024/04/11 07:55:28;;;;;;;0.97;0.83;;;17.30;92.90;;;;;;4464016;26;21058;-26
2024/04/11 07:57:30;;;;;;;0.70;0.70;;;16.90;91.80;;;;;;4456141;26;20476;-26
2024/04/11 07:59:32;;;;;;;1.17;1.07;;;16.90;92.00;;;;;;4460496;26;20481;-25
2024/04/11 08:01:37;;;;;;;2.03;1.30;;;17.00;91.90;;;;;;4462165;26;20473;-25
2024/04/11 08:03:39;;;;;;;1.10;0.93;;;15.70;92.20;;;;;;4457698;26;20820;-24
2024/04/11 08:05:41;;;;;;;1.43;1.13;;;15.40;92.60;;;;;;4458212;26;20489;-24
2024/04/11 08:07:43;;;;;;;0.70;0.70;;;15.40;94.50;;;;;;4457919;26;20556;-25
2024/04/11 08:09:45;;;;;;;1.40;0.93;;;15.80;94.70;;;;;;4458397;26;20458;-26
2024/04/11 08:11:51;;;;;;;0.90;0.90;;;16.30;93.80;;;;;;4458772;26;20471;-25
2024/04/11 08:13:53;;;;;;;0.93;0.87;;;16.50;93.00;;;;;;4459164;26;20477;-25
2024/04/11 08:15:55;;;;;;;0.70;0.70;;;16.90;92.80;;;;;;4458161;26;20519;-25
2024/04/11 08:17:57;;;;;;;0.80;0.80;;;16.80;91.70;;;;;;4458685;26;20475;-24
2024/04/11 08:19:59;;;;;;;0.83;0.83;;;16.90;92.50;;;;;;4461273;26;20529;-25
2024/04/11 08:22:01;;;;;;;0.83;0.83;;;17.00;92.70;;;;;;4466605;26;21369;-25
2024/04/11 08:24:03;;;;;;;0.80;0.80;;;17.00;91.40;;;;;;4468098;26;20468;-25
2024/04/11 08:26:05;;;;;;;0.70;0.70;;;17.20;90.20;;;;;;4461261;26;20469;-25
2024/04/11 08:28:08;;;;;;;0.90;0.90;;;17.00;87.40;;;;;;4459883;26;21100;-25
2024/04/11 08:30:15;;;;;;;0.80;0.80;;;16.80;89.30;;;;;;4463166;26;20473;-24
2024/04/11 08:32:17;;;;;;;0.63;0.63;;;16.50;89.60;;;;;;4461595;26;20462;-25
2024/04/11 08:34:21;;;;;;;0.80;0.80;;;16.40;89.10;;;;;;4462136;26;20459;-24
2024/04/11 08:36:28;;;;;;;1.37;1.00;;;16.40;89.50;;;;;;4460252;26;20873;-24
2024/04/11 08:38:33;;;;;;;0.80;0.80;;;16.50;89.40;;;;;;4456231;26;20517;-25
2024/04/11 08:40:39;;;;;;;1.37;0.83;;;16.70;85.50;;;;;;4463486;26;20477;-25
2024/04/11 08:42:42;;;;;;;0.80;0.80;;;16.50;88.30;;;;;;4456104;26;20485;-25
2024/04/11 08:44:47;;;;;;;1.10;0.70;;;16.60;85.40;;;;;;4458980;26;20465;-25
2024/04/11 08:46:48;;;;;;;0.80;0.80;;;16.90;85.00;;;;;;4464301;26;20508;-24
2024/04/11 08:48:52;;;;;;;0.73;0.73;;;17.00;84.10;;;;;;4459724;26;20473;-25
2024/04/11 08:50:59;;;;;;;0.80;0.80;;;17.30;82.50;;;;;;4452416;26;20553;-24
2024/04/11 08:53:05;;;;;;;0.90;0.90;;;17.60;80.80;;;;;;4453368;26;20477;-24
2024/04/11 08:55:06;;;;;;;0.60;0.60;;;17.70;79.20;;;;;;4452192;26;20477;-24
2024/04/11 08:57:11;;;;;;;0.70;0.70;;;16.80;77.70;;;;;;4451990;26;20473;-24
2024/04/11 08:59:16;;;;;;;1.70;0.90;;;16.80;80.30;;;;;;4456072;26;20537;-24
2024/04/11 09:01:19;;;;;;;0.80;0.80;;;16.60;79.40;;;;;;4462866;26;20471;-24
2024/04/11 09:03:22;;;;;;;0.70;0.70;;;16.50;79.80;;;;;;4466688;26;20527;-24
2024/04/11 09:05:24;;;;;;;0.80;0.80;;;16.60;81.90;;;;;;4471608;26;20476;-24
2024/04/11 09:07:26;;;;;;;1.07;0.80;;;17.30;80.80;;;;;;4457939;26;20509;-24
2024/04/11 09:09:27;;;;;;;0.80;0.80;;;17.50;79.70;;;;;;4475511;26;20519;-24
2024/04/11 09:11:31;;;;;;;0.80;0.80;;;18.20;79.70;;;;;;4453470;26;20521;-24
2024/04/11 09:13:33;;;;;;;0.70;0.70;;;18.70;79.80;;;;;;4458216;26;20907;-24
2024/04/11 09:15:36;;;;;;;0.80;0.80;;;18.80;72.20;;;;;;4463846;26;20477;-23
2024/04/11 09:17:45;;;;;;;0.83;0.80;;;18.20;74.20;;;;;;4462646;26;20464;-23
2024/04/11 09:19:47;;;;;;;0.90;0.87;;;18.10;76.10;;;;;;4463561;26;21237;-24
2024/04/11 09:21:49;;;;;;;0.83;0.83;;;17.90;71.90;;;;;;4462628;26;20501;-24
2024/04/11 09:23:51;;;;;;;0.70;0.70;;;17.30;71.10;;;;;;4455525;26;20514;-26
2024/04/11 09:25:55;;;;;;;3.23;0.77;;;17.10;75.20;;;;;;4467546;26;20902;-26
2024/04/11 09:28:00;;;;;;;0.60;0.60;;;17.20;73.40;;;;;;4462212;26;21415;-26
2024/04/11 09:30:03;;;;;;;0.70;0.70;;;17.20;72.10;;;;;;4450363;26;21303;-26
2024/04/11 09:32:06;;;;;;;2.80;1.13;;;17.50;70.90;;;;;;4463327;26;20533;-23
2024/04/11 09:34:11;;;;;;;0.60;0.60;;;18.30;72.10;;;;;;4462942;26;20990;-24
2024/04/11 09:36:15;;;;;;;0.70;0.70;;;19.10;69.10;;;;;;4453154;26;20525;-23
2024/04/11 09:38:19;;;;;;;1.07;0.80;;;22.90;75.40;;;;;;4463860;26;20479;-24
2024/04/11 09:40:26;;;;;;;1.30;1.20;;;21.50;72.30;;;;;;4463479;26;20459;-24
2024/04/11 09:42:33;;;;;;;0.90;0.90;;;20.60;62.30;;;;;;4462811;26;20563;-23
2024/04/11 09:44:39;;;;;;;0.70;0.70;;;20.50;65.20;;;;;;4462231;26;20483;-24
2024/04/11 09:46:41;;;;;;;0.73;0.67;;;20.90;61.20;;;;;;4457084;26;20473;-24
2024/04/11 09:48:48;;;;;;;0.73;0.73;;;21.40;60.90;;;;;;4462872;26;20473;-24
2024/04/11 09:50:52;;;;;;;0.70;0.70;;;21.10;57.10;;;;;;4467978;26;20459;-24
2024/04/11 09:52:56;;;;;;;0.80;0.80;;;19.70;55.80;;;;;;4462819;26;20508;-22
2024/04/11 09:55:03;;;;;;;0.73;0.70;;;18.60;59.90;;;;;;4465190;26;20459;-23
2024/04/11 09:57:12;;;;;;;0.70;0.70;;;18.70;60.40;;;;;;4465713;26;20493;-24
2024/04/11 09:59:15;;;;;;;0.80;0.80;;;19.50;61.10;;;;;;4455457;26;20525;-24
2024/04/11 10:01:32;;;;;;;0.63;0.63;;;19.40;57.90;;;;;;4470935;26;20814;-23
2024/04/11 10:03:42;;;;;;;0.70;0.70;;;20.10;59.10;;;;;;4451300;26;20532;-24
2024/04/11 10:05:50;;;;;;;0.70;0.70;;;19.90;57.10;;;;;;4452683;26;20545;-24
2024/04/11 10:07:59;;;;;;;0.70;0.70;;;20.40;58.70;;;;;;4453449;26;20476;-24
2024/04/11 10:10:06;;;;;;;1.03;0.93;;;20.80;53.90;;;;;;4455402;26;20531;-24
2024/04/11 10:12:11;;;;;;;0.77;0.77;;;21.30;57.50;;;;;;4461195;26;20521;-24
2024/04/11 10:14:22;;;;;;;0.73;0.73;;;21.20;55.00;;;;;;4453141;26;20525;-24
2024/04/11 10:16:32;;;;;;;0.70;0.70;;;21.00;55.60;;;;;;4458363;26;20500;-26
2024/04/11 10:18:45;;;;;;;0.70;0.70;;;21.20;57.00;;;;;;4469070;26;20491;-24
2024/04/11 10:21:01;;;;;;;3.93;0.80;;;21.50;54.30;;;;;;4461775;26;21106;-23
2024/04/11 10:23:03;;;;;;;0.70;0.70;;;21.70;54.30;;;;;;4459471;26;20528;-22
2024/04/11 10:25:12;;;;;;;1.27;0.93;;;21.60;52.20;;;;;;4463516;26;20561;-23
2024/04/11 10:27:20;;;;;;;0.97;0.70;;;21.90;53.70;;;;;;4459088;26;20551;-23
2024/04/11 10:29:26;;;;;;;0.80;0.80;;;21.60;56.30;;;;;;4455318;26;21099;-23
2024/04/11 10:31:32;;;;;;;0.70;0.70;;;22.00;56.60;;;;;;4460139;26;20967;-24
2024/04/11 10:33:44;;;;;;;0.80;0.80;;;22.40;57.30;;;;;;4466960;26;20491;-23
2024/04/11 10:35:46;;;;;;;0.80;0.80;;;22.80;55.20;;;;;;4461837;26;20547;-23
2024/04/11 10:37:49;;;;;;;0.80;0.80;;;22.60;54.40;;;;;;4455211;26;20614;-23
2024/04/11 10:39:57;;;;;;;2.03;1.02;;;22.40;52.90;;;;;;4458295;26;20465;-23
2024/04/11 10:42:00;;;;;;;0.90;0.90;;;21.80;53.50;;;;;;4460511;26;20486;-24
2024/04/11 10:44:02;;;;;;;3.27;0.80;;;21.90;52.40;;;;;;4467629;26;20569;-24
2024/04/11 10:46:05;;;;;;;0.80;0.80;;;21.80;55.00;;;;;;4458956;26;20542;-27
2024/04/11 10:48:14;;;;;;;0.90;0.90;;;21.30;55.10;;;;;;4452794;26;20493;-24
2024/04/11 10:50:16;;;;;;;0.83;0.83;;;20.70;54.30;;;;;;4459757;26;20565;-25